SKBGSKBQ

Guest
Details From SKBG - PALONEGRO
To SKBQ - Ernesto Cortissoz
Flight Number -
Tags generated
Created
Modified
Stats Distance 245 nm / 454 km
Max Altitude 24,900 ft / 7,590 m
Waypoints 6
Social Downloads 0
Likes 0
Share VATSIM

Download

Looking for another format? Having issues loading an existing format? Contact us
Advertisement - Login to hide

Notes

Basic altitude profile: - Ascent Rate: 2500ft/min - Ascent Speed: 250kts - Cruise Altitude: 35000ft - Cruise Speed: 420kts - Descent Rate: 1500ft/min - Descent Speed: 250kts Options: - Use NATs: yes - Use PACOTS: yes - Use low airways: yes - Use high airways: yes

Route

SKBG MONLA W9 DIBAM UW9 ELB W12 MUDIN SKBQ

ID Type Via Altitude Latitude Longitude Leg Dist Tot Dist Heading (true) Name
O SKBG APT - 0 ft / 0 m 7.12650˚ -73.18476˚ - 0 nm - PALONEGRO
MONLA FIX - 10,400 ft / 3,170 m 7.58056˚ -73.36722˚ 29 nm 29 nm 338° / 338° -
DIBAM FIX W9 (AWY-LO) 24,500 ft / 7,468 m 8.19611˚ -73.61889˚ 39 nm 69 nm 338° / 338° -
ELB VOR UW9 (AWY-HI) 24,900 ft / 7,590 m 9.04528˚ -73.96722˚ 55 nm 124 nm 338° / 338° EL BANCO VOR-DME
MUDIN FIX W12 (AWY-LO) 14,300 ft / 4,359 m 9.78000˚ -74.34056˚ 49 nm 173 nm 333° / 333° -
O SKBQ APT - 0 ft / 0 m 10.88959˚ -74.78082˚ 71 nm 245 nm 339° / 339° Ernesto Cortissoz

Altitude Profile

Advertisement - Login to hide

Weather


0- 5 10 15 20 25 30 35+ Temperature / ° C

Clouds and Precipitation
Forecast for 2017-12-18 18:00 UTC. Updated 2 hours ago

Ground ~20,000 ft ~40,000 ft Winds

SKBG

Details ICAO SKBG (BGA)
Name PALONEGRO
Region Colombia
Timezone America/Bogota (UTC-5.0)
Stats Elevation 3,896 ft / 1,188 m (AMSL)
Location 7.126500° -73.184764°
Runways 1
Magnetic Variation 8.233° W

METAR

SKBG 181600Z 32004KT 9999 FEW010 26/17 A2999

Decode

TAF

Not found

Departure Runways

ID Width Length Bearing (true) Bearing (mag) Surface Threshold Offset Overrun Length
16 164 ft / 50 m 7,452 ft / 2,271 m 159.37° 167.60° Asphalt 0 ft / 0 m 0 ft / 0 m
34 164 ft / 50 m 7,452 ft / 2,271 m 339.37° 347.60° Asphalt 0 ft / 0 m 0 ft / 0 m

SKBQ

Details ICAO SKBQ (BAQ)
Name Ernesto Cortissoz
Region Colombia
Timezone America/Bogota (UTC-5.0)
Stats Elevation 98 ft / 30 m (AMSL)
Location 10.889589° -74.780820°
Runways 1
Magnetic Variation 7.729° W

METAR

SKBQ 181600Z 02009G19KT CAVOK 31/23 A2984

Decode

TAF

Not found

Destination Runways

ID Width Length Bearing (true) Bearing (mag) Surface Threshold Offset Overrun Length
05 148 ft / 45 m 9,863 ft / 3,006 m 40.09° 47.82° Concrete 0 ft / 0 m 105 ft / 32 m
23 148 ft / 45 m 9,863 ft / 3,006 m 220.09° 227.82° Concrete 0 ft / 0 m 0 ft / 0 m

Approach Navaids

Runway Type Ident Frequency Range Bearing (true) Bearing (mag) Slope Elevation
05 Localiser IBAQ 109.90 MHz 18 nm / 33 km 39.98° 47.71° - 98 ft / 30 m (AMSL)
05 Glidescope IBAQ 109.90 MHz 10 nm / 19 km 40.09° 47.82° 3.00° 98 ft / 30 m (AMSL)

Popular Alternatives